Buoy 52514

sailwx.info

Track history (hours):
 
Tides and Currents Weather Stations Pressure Air Temp Water Temp Dewpoint Dewpoint Depression Visibility Wind Speed Wind Dir Waves Ship Positions

Drifting buoy 52514

Last reported at 2014-Aug-23 08:00 UTC. Time now 2014-Aug-23 11:28 UTC.
Position N 30°05' E 132°28'.

Water temperature 29.6 ° C

Date/timePositionNaut miles runAvg speedWind from/ knotsBaromVisibWave heightAir tempDewpointWater temp
2014-Aug-23 08:00N 30°05' E 132°28'1 0.3 29.6
2014-Aug-23 06:00N 30°06' E 132°28'1 1.4 29.6
2014-Aug-23 05:00N 30°07' E 132°29'0 0.1 29.7
2014-Aug-23 04:00N 30°07' E 132°29'5 0.6 29.6
2014-Aug-22 19:00N 30°12' E 132°26'0 0.0 28.9
2014-Aug-22 18:00N 30°12' E 132°26'0 0.2 28.9
2014-Aug-22 16:00N 30°12' E 132°26'0 0.0 28.9
2014-Aug-22 15:00N 30°12' E 132°26'3 0.9 28.9
2014-Aug-22 12:00N 30°14' E 132°24'4 0.9 29.0
2014-Aug-22 08:00N 30°17' E 132°21'0 0.0 29.1
2014-Aug-22 07:00N 30°17' E 132°21'1 1.2 29.1
2014-Aug-22 06:00N 30°18' E 132°21'0 0.2 29.2
2014-Aug-22 04:00N 30°18' E 132°20'0 0.0 29.3
2014-Aug-22 03:00N 30°18' E 132°20'2 0.3 29.2
2014-Aug-21 21:00N 30°19' E 132°21'0 0.0 29.0
2014-Aug-21 20:00N 30°19' E 132°21'0 0.5 29.0
2014-Aug-21 19:00N 30°20' E 132°22'1 0.5 29.0
2014-Aug-21 18:00N 30°20' E 132°23'1 1.4 29.0
2014-Aug-21 17:00N 30°20' E 132°24'3 0.8 29.0
2014-Aug-21 13:00N 30°22' E 132°27'1 0.7 29.1
2014-Aug-21 12:00N 30°22' E 132°28'1 0.6 29.1
2014-Aug-21 10:00N 30°23' E 132°28'1 0.6 29.2
2014-Aug-21 09:00N 30°24' E 132°29'1 0.3 29.3
2014-Aug-21 07:00N 30°24' E 132°30'1 0.5 29.4
2014-Aug-21 06:00N 30°24' E 132°30'0 0.0 29.4
2014-Aug-21 05:00N 30°24' E 132°30'1 0.6 29.3
2014-Aug-21 04:00N 30°24' E 132°31'0 0.5 29.2
2014-Aug-21 03:00N 30°24' E 132°31'1 0.1 29.1
2014-Aug-20 21:00N 30°25' E 132°32'0 0.2 28.9
2014-Aug-20 20:00N 30°25' E 132°32'0 0.5 28.9
2014-Aug-20 19:00N 30°25' E 132°32'0 0.0 28.9
2014-Aug-20 18:00N 30°25' E 132°32'1 0.8 28.9
2014-Aug-20 17:00N 30°26' E 132°32'2 0.3 28.9
2014-Aug-20 12:00N 30°27' E 132°30'0 0.4 29.0
2014-Aug-20 11:00N 30°27' E 132°30'1 0.9 29.0
2014-Aug-20 10:00N 30°27' E 132°30'1 0.7 29.0
2014-Aug-20 08:00N 30°27' E 132°28'3 0.8 29.1
2014-Aug-20 04:00N 30°25' E 132°25'0 0.0 29.1
2014-Aug-20 03:00N 30°25' E 132°25'2 0.7 29.1
2014-Aug-20 00:00N 30°23' E 132°25'1 0.3 28.9
2014-Aug-19 19:00N 30°23' E 132°23'1 1.5 28.9
2014-Aug-19 18:00N 30°22' E 132°21'0 0.0 28.9
2014-Aug-19 17:00N 30°22' E 132°21'0 0.0 28.9
2014-Aug-19 16:00N 30°22' E 132°21'3 1.0 28.9
2014-Aug-19 13:00N 30°20' E 132°19'0 0.2 28.9
2014-Aug-19 12:00N 30°20' E 132°19'7 1.5 28.9
2014-Aug-19 07:00N 30°16' E 132°12'0 0.0 29.1
2014-Aug-19 06:00N 30°16' E 132°12'8 1.4 29.1
2014-Aug-19 00:00N 30°08' E 132°08'0 0.1 28.8
2014-Aug-18 21:00N 30°08' E 132°08'2 1.6 28.8
2014-Aug-18 20:00N 30°08' E 132°06'0 0.2 28.8
2014-Aug-18 19:00N 30°08' E 132°06'3 2.5 28.8
2014-Aug-18 18:00N 30°06' E 132°03'0 0.0 28.8
2014-Aug-18 17:00N 30°06' E 132°03'5 1.4 28.8
2014-Aug-18 13:00N 30°04' E 131°58'2 1.1 28.8
2014-Aug-18 11:00N 30°02' E 131°56'1 0.2 28.9
2014-Aug-18 07:00N 30°01' E 131°56'2 0.7 28.9
2014-Aug-18 04:00N 30°00' E 131°54'1 0.9 28.9
2014-Aug-18 03:00N 29°59' E 131°54'0 0.0 28.8
2014-Aug-18 01:00N 29°59' E 131°54'3 0.8 28.8
2014-Aug-17 21:00N 29°57' E 131°51'3 3.3 28.7
2014-Aug-17 20:00N 29°53' E 131°51'0 0.0 28.7
2014-Aug-17 18:00N 29°53' E 131°51'0 0.0 28.7
2014-Aug-17 17:00N 29°53' E 131°51'4 3.8 28.7
2014-Aug-17 16:00N 29°50' E 131°52'0 0.0 28.7
2014-Aug-17 15:00N 29°50' E 131°52'0 0.0 28.8
2014-Aug-17 13:00N 29°50' E 131°52'1 0.6 28.8
2014-Aug-17 12:00N 29°49' E 131°52'3 0.9 28.9
2014-Aug-17 09:00N 29°47' E 131°50'1 0.7 28.9
2014-Aug-17 07:00N 29°46' E 131°49'1 0.6 29.0
2014-Aug-17 05:00N 29°45' E 131°48'0 0.2 29.0
2014-Aug-17 03:00N 29°46' E 131°48'3 1.5 28.9
2014-Aug-17 01:00N 29°43' E 131°46'1 1.2 28.7
2014-Aug-17 00:00N 29°42' E 131°46'3 1.3 28.7
2014-Aug-16 22:00N 29°40' E 131°44'2 0.8 28.6
2014-Aug-16 20:00N 29°39' E 131°43'2 1.2 28.6
2014-Aug-16 18:00N 29°36' E 131°44'1 1.2 28.6
2014-Aug-16 17:00N 29°35' E 131°44'0 0.0 28.6
2014-Aug-16 16:00N 29°35' E 131°44'0 0.0 28.5
2014-Aug-16 15:00N 29°35' E 131°44'1 0.5 28.5
2014-Aug-16 12:00N 29°34' E 131°43'1 0.3 28.5
2014-Aug-16 09:00N 29°34' E 131°42'1 0.8 28.4
2014-Aug-16 08:00N 29°33' E 131°41'2 1.0 28.4
2014-Aug-16 06:00N 29°33' E 131°39'0 0.1 28.4
2014-Aug-16 05:00N 29°33' E 131°39'2 1.1 28.6
2014-Aug-16 03:00N 29°32' E 131°37'0 0.0 28.7
2014-Aug-16 02:00N 29°32' E 131°37'4 0.6 28.8
2014-Aug-15 20:00N 29°29' E 131°34'1 0.7 28.8
2014-Aug-15 19:00N 29°29' E 131°33'1 0.8 28.8
2014-Aug-15 18:00N 29°28' E 131°33'1 0.3 28.8
2014-Aug-15 16:00N 29°28' E 131°32'0 0.0 28.9
2014-Aug-15 15:00N 29°28' E 131°32'3 1.0 28.9
2014-Aug-15 12:00N 29°27' E 131°29'0 0.3 28.9
2014-Aug-15 11:00N 29°27' E 131°28'3 1.2 28.9
2014-Aug-15 08:00N 29°25' E 131°25'2 0.8 28.9
2014-Aug-15 06:00N 29°24' E 131°23'1 1.5 28.9
2014-Aug-15 05:00N 29°23' E 131°22'1 0.4 28.9
2014-Aug-15 03:00N 29°24' E 131°21'1 0.2 28.8
2014-Aug-15 00:00N 29°24' E 131°21'5 1.2 28.8
2014-Aug-14 20:00N 29°23' E 131°15'2 1.5 28.8
2014-Aug-14 19:00N 29°23' E 131°14'1 1.1 28.8
2014-Aug-14 18:00N 29°22' E 131°13'2 0.9 28.8
2014-Aug-14 16:00N 29°21' E 131°11'2 0.7 28.8
2014-Aug-14 13:00N 29°20' E 131°09'1 1.0 28.9
2014-Aug-14 12:00N 29°20' E 131°08'2 1.6 28.9
2014-Aug-14 11:00N 29°21' E 131°07'7 2.2 28.9
2014-Aug-14 08:00N 29°23' E 130°60'0 0.0 29.0
2014-Aug-14 07:00N 29°23' E 130°60'2 1.2 29.1
2014-Aug-14 05:00N 29°23' E 130°57'0 0.0 29.0
2014-Aug-14 04:00N 29°23' E 130°57'2 2.3 29.0
2014-Aug-14 03:00N 29°24' E 130°54'3 0.5 28.9
2014-Aug-13 22:00N 29°25' E 130°52'1 0.9 28.8
2014-Aug-13 21:00N 29°25' E 130°51'3 0.9 28.8
2014-Aug-13 18:00N 29°27' E 130°48'2 1.2 28.8
2014-Aug-13 16:00N 29°28' E 130°46'5 1.8 28.8
2014-Aug-13 13:00N 29°28' E 130°40'3 0.8 28.9
2014-Aug-13 09:00N 29°27' E 130°36'0 0.0 28.9
2014-Aug-13 08:00N 29°27' E 130°36'   28.9
Track history (hours):
 
Tides and Currents Weather Stations Pressure Air Temp Water Temp Dewpoint Dewpoint Depression Visibility Wind Speed Wind Dir Waves Ship Positions

Drifting buoy 52514

Last reported at 2014-Aug-23 08:00 UTC. Time now 2014-Aug-23 11:28 UTC.
Position N 30°05' E 132°28'.

Water temperature 29.6 ° C

Date/timePositionNaut miles runAvg speedWind from/ knotsBaromVisibWave heightAir tempDewpointWater temp
2014-Aug-23 08:00N 30°05' E 132°28'1 0.3 29.6
2014-Aug-23 06:00N 30°06' E 132°28'1 1.4 29.6
2014-Aug-23 05:00N 30°07' E 132°29'0 0.1 29.7
2014-Aug-23 04:00N 30°07' E 132°29'5 0.6 29.6
2014-Aug-22 19:00N 30°12' E 132°26'0 0.0 28.9
2014-Aug-22 18:00N 30°12' E 132°26'0 0.2 28.9
2014-Aug-22 16:00N 30°12' E 132°26'0 0.0 28.9
2014-Aug-22 15:00N 30°12' E 132°26'3 0.9 28.9
2014-Aug-22 12:00N 30°14' E 132°24'4 0.9 29.0
2014-Aug-22 08:00N 30°17' E 132°21'0 0.0 29.1
2014-Aug-22 07:00N 30°17' E 132°21'1 1.2 29.1
2014-Aug-22 06:00N 30°18' E 132°21'0 0.2 29.2
2014-Aug-22 04:00N 30°18' E 132°20'0 0.0 29.3
2014-Aug-22 03:00N 30°18' E 132°20'2 0.3 29.2
2014-Aug-21 21:00N 30°19' E 132°21'0 0.0 29.0
2014-Aug-21 20:00N 30°19' E 132°21'0 0.5 29.0
2014-Aug-21 19:00N 30°20' E 132°22'1 0.5 29.0
2014-Aug-21 18:00N 30°20' E 132°23'1 1.4 29.0
2014-Aug-21 17:00N 30°20' E 132°24'3 0.8 29.0
2014-Aug-21 13:00N 30°22' E 132°27'1 0.7 29.1
2014-Aug-21 12:00N 30°22' E 132°28'1 0.6 29.1
2014-Aug-21 10:00N 30°23' E 132°28'1 0.6 29.2
2014-Aug-21 09:00N 30°24' E 132°29'1 0.3 29.3
2014-Aug-21 07:00N 30°24' E 132°30'1 0.5 29.4
2014-Aug-21 06:00N 30°24' E 132°30'0 0.0 29.4
2014-Aug-21 05:00N 30°24' E 132°30'1 0.6 29.3
2014-Aug-21 04:00N 30°24' E 132°31'0 0.5 29.2
2014-Aug-21 03:00N 30°24' E 132°31'1 0.1 29.1
2014-Aug-20 21:00N 30°25' E 132°32'0 0.2 28.9
2014-Aug-20 20:00N 30°25' E 132°32'0 0.5 28.9
2014-Aug-20 19:00N 30°25' E 132°32'0 0.0 28.9
2014-Aug-20 18:00N 30°25' E 132°32'1 0.8 28.9
2014-Aug-20 17:00N 30°26' E 132°32'2 0.3 28.9
2014-Aug-20 12:00N 30°27' E 132°30'0 0.4 29.0
2014-Aug-20 11:00N 30°27' E 132°30'1 0.9 29.0
2014-Aug-20 10:00N 30°27' E 132°30'1 0.7 29.0
2014-Aug-20 08:00N 30°27' E 132°28'3 0.8 29.1
2014-Aug-20 04:00N 30°25' E 132°25'0 0.0 29.1
2014-Aug-20 03:00N 30°25' E 132°25'2 0.7 29.1
2014-Aug-20 00:00N 30°23' E 132°25'1 0.3 28.9
2014-Aug-19 19:00N 30°23' E 132°23'1 1.5 28.9
2014-Aug-19 18:00N 30°22' E 132°21'0 0.0 28.9
2014-Aug-19 17:00N 30°22' E 132°21'0 0.0 28.9
2014-Aug-19 16:00N 30°22' E 132°21'3 1.0 28.9
2014-Aug-19 13:00N 30°20' E 132°19'0 0.2 28.9
2014-Aug-19 12:00N 30°20' E 132°19'7 1.5 28.9
2014-Aug-19 07:00N 30°16' E 132°12'0 0.0 29.1
2014-Aug-19 06:00N 30°16' E 132°12'8 1.4 29.1
2014-Aug-19 00:00N 30°08' E 132°08'0 0.1 28.8
2014-Aug-18 21:00N 30°08' E 132°08'2 1.6 28.8
2014-Aug-18 20:00N 30°08' E 132°06'0 0.2 28.8
2014-Aug-18 19:00N 30°08' E 132°06'3 2.5 28.8
2014-Aug-18 18:00N 30°06' E 132°03'0 0.0 28.8
2014-Aug-18 17:00N 30°06' E 132°03'5 1.4 28.8
2014-Aug-18 13:00N 30°04' E 131°58'2 1.1 28.8
2014-Aug-18 11:00N 30°02' E 131°56'1 0.2 28.9
2014-Aug-18 07:00N 30°01' E 131°56'2 0.7 28.9
2014-Aug-18 04:00N 30°00' E 131°54'1 0.9 28.9
2014-Aug-18 03:00N 29°59' E 131°54'0 0.0 28.8
2014-Aug-18 01:00N 29°59' E 131°54'3 0.8 28.8
2014-Aug-17 21:00N 29°57' E 131°51'3 3.3 28.7
2014-Aug-17 20:00N 29°53' E 131°51'0 0.0 28.7
2014-Aug-17 18:00N 29°53' E 131°51'0 0.0 28.7
2014-Aug-17 17:00N 29°53' E 131°51'4 3.8 28.7
2014-Aug-17 16:00N 29°50' E 131°52'0 0.0 28.7
2014-Aug-17 15:00N 29°50' E 131°52'0 0.0 28.8
2014-Aug-17 13:00N 29°50' E 131°52'1 0.6 28.8
2014-Aug-17 12:00N 29°49' E 131°52'3 0.9 28.9
2014-Aug-17 09:00N 29°47' E 131°50'1 0.7 28.9
2014-Aug-17 07:00N 29°46' E 131°49'1 0.6 29.0
2014-Aug-17 05:00N 29°45' E 131°48'0 0.2 29.0
2014-Aug-17 03:00N 29°46' E 131°48'3 1.5 28.9
2014-Aug-17 01:00N 29°43' E 131°46'1 1.2 28.7
2014-Aug-17 00:00N 29°42' E 131°46'3 1.3 28.7
2014-Aug-16 22:00N 29°40' E 131°44'2 0.8 28.6
2014-Aug-16 20:00N 29°39' E 131°43'2 1.2 28.6
2014-Aug-16 18:00N 29°36' E 131°44'1 1.2 28.6
2014-Aug-16 17:00N 29°35' E 131°44'0 0.0 28.6
2014-Aug-16 16:00N 29°35' E 131°44'0 0.0 28.5
2014-Aug-16 15:00N 29°35' E 131°44'1 0.5 28.5
2014-Aug-16 12:00N 29°34' E 131°43'1 0.3 28.5
2014-Aug-16 09:00N 29°34' E 131°42'1 0.8 28.4
2014-Aug-16 08:00N 29°33' E 131°41'2 1.0 28.4
2014-Aug-16 06:00N 29°33' E 131°39'0 0.1 28.4
2014-Aug-16 05:00N 29°33' E 131°39'2 1.1 28.6
2014-Aug-16 03:00N 29°32' E 131°37'0 0.0 28.7
2014-Aug-16 02:00N 29°32' E 131°37'4 0.6 28.8
2014-Aug-15 20:00N 29°29' E 131°34'1 0.7 28.8
2014-Aug-15 19:00N 29°29' E 131°33'1 0.8 28.8
2014-Aug-15 18:00N 29°28' E 131°33'1 0.3 28.8
2014-Aug-15 16:00N 29°28' E 131°32'0 0.0 28.9
2014-Aug-15 15:00N 29°28' E 131°32'3 1.0 28.9
2014-Aug-15 12:00N 29°27' E 131°29'0 0.3 28.9
2014-Aug-15 11:00N 29°27' E 131°28'3 1.2 28.9
2014-Aug-15 08:00N 29°25' E 131°25'2 0.8 28.9
2014-Aug-15 06:00N 29°24' E 131°23'1 1.5 28.9
2014-Aug-15 05:00N 29°23' E 131°22'1 0.4 28.9
2014-Aug-15 03:00N 29°24' E 131°21'1 0.2 28.8
2014-Aug-15 00:00N 29°24' E 131°21'5 1.2 28.8
2014-Aug-14 20:00N 29°23' E 131°15'2 1.5 28.8
2014-Aug-14 19:00N 29°23' E 131°14'1 1.1 28.8
2014-Aug-14 18:00N 29°22' E 131°13'2 0.9 28.8
2014-Aug-14 16:00N 29°21' E 131°11'2 0.7 28.8
2014-Aug-14 13:00N 29°20' E 131°09'1 1.0 28.9
2014-Aug-14 12:00N 29°20' E 131°08'2 1.6 28.9
2014-Aug-14 11:00N 29°21' E 131°07'7 2.2 28.9
2014-Aug-14 08:00N 29°23' E 130°60'0 0.0 29.0
2014-Aug-14 07:00N 29°23' E 130°60'2 1.2 29.1
2014-Aug-14 05:00N 29°23' E 130°57'0 0.0 29.0
2014-Aug-14 04:00N 29°23' E 130°57'2 2.3 29.0
2014-Aug-14 03:00N 29°24' E 130°54'3 0.5 28.9
2014-Aug-13 22:00N 29°25' E 130°52'1 0.9 28.8
2014-Aug-13 21:00N 29°25' E 130°51'3 0.9 28.8
2014-Aug-13 18:00N 29°27' E 130°48'2 1.2 28.8
2014-Aug-13 16:00N 29°28' E 130°46'5 1.8 28.8
2014-Aug-13 13:00N 29°28' E 130°40'3 0.8 28.9
2014-Aug-13 09:00N 29°27' E 130°36'0 0.0 28.9
2014-Aug-13 08:00N 29°27' E 130°36'   28.9

Dump ship's entire track history